Time;durP1;ratioP1;P1;durP2;ratioP2;P2;SDS_P1;SDS_P2;PMS_P1;PMS_P2;Temp;Humidity;BMP_temperature;BMP_pressure;BME280_temperature;BME280_humidity;BME280_pressure;Samples;Min_cycle;Max_cycle;Signal;HPM_P1;HPM_P2
2021/11/29 00:01:19;;;;;;;12.97;10.30;;;2.90;94.40;;;;;;4994619;28;20467;-75
2021/11/29 00:03:46;;;;;;;12.00;10.57;;;2.90;94.60;;;;;;4994852;28;20453;-75
2021/11/29 00:06:13;;;;;;;13.40;10.60;;;2.80;94.60;;;;;;4994264;28;20523;-75
2021/11/29 00:08:41;;;;;;;11.57;10.43;;;2.80;94.80;;;;;;4994173;28;20945;-75
2021/11/29 00:11:08;;;;;;;13.20;10.80;;;2.80;94.90;;;;;;4994411;28;20500;-76
2021/11/29 00:13:35;;;;;;;14.13;11.13;;;2.70;95.10;;;;;;4994193;28;20941;-77
2021/11/29 00:16:01;;;;;;;13.00;11.47;;;2.70;95.30;;;;;;4994868;28;20532;-76
2021/11/29 00:18:29;;;;;;;12.20;11.00;;;2.70;95.30;;;;;;4994637;28;20451;-76
2021/11/29 00:20:56;;;;;;;14.77;10.80;;;2.70;95.20;;;;;;4994090;28;20474;-76
2021/11/29 00:23:22;;;;;;;13.60;10.43;;;2.60;95.20;;;;;;4993912;28;20470;-76
2021/11/29 00:25:51;;;;;;;13.67;11.37;;;2.60;95.40;;;;;;4993869;28;20483;-76
2021/11/29 00:28:18;;;;;;;13.93;11.60;;;2.50;95.60;;;;;;4994270;28;20815;-74
2021/11/29 00:30:46;;;;;;;16.03;12.10;;;2.50;95.60;;;;;;4994040;28;20839;-76
2021/11/29 00:33:13;;;;;;;12.93;11.47;;;2.60;95.60;;;;;;4994138;28;20455;-76
2021/11/29 00:35:40;;;;;;;11.90;10.70;;;2.60;95.60;;;;;;4994023;28;20441;-76
2021/11/29 00:38:08;;;;;;;15.23;10.90;;;2.50;95.60;;;;;;4993585;28;20455;-76
2021/11/29 00:40:35;;;;;;;11.80;10.60;;;2.50;95.60;;;;;;4994017;28;20481;-76
2021/11/29 00:43:04;;;;;;;12.60;11.30;;;2.50;95.60;;;;;;4994399;28;20453;-75
2021/11/29 00:45:31;;;;;;;13.50;10.50;;;2.50;95.60;;;;;;4993846;28;20495;-75
2021/11/29 00:47:58;;;;;;;14.60;11.00;;;2.50;95.60;;;;;;4994006;28;20450;-75
2021/11/29 00:50:24;;;;;;;11.53;10.17;;;2.50;95.70;;;;;;4993700;28;20822;-75
2021/11/29 00:52:51;;;;;;;12.07;10.77;;;2.50;95.50;;;;;;4993928;28;20452;-75
2021/11/29 00:55:19;;;;;;;13.40;10.50;;;2.50;95.60;;;;;;4993860;28;20458;-75
2021/11/29 00:57:46;;;;;;;11.30;10.20;;;2.50;95.50;;;;;;4993784;28;20536;-75
2021/11/29 01:00:18;;;;;;;12.17;11.07;;;2.50;95.40;;;;;;4994071;28;20479;-75
2021/11/29 01:02:45;;;;;;;11.47;10.33;;;2.50;95.50;;;;;;4994315;28;20433;-75
2021/11/29 01:05:12;;;;;;;13.43;10.90;;;2.50;95.40;;;;;;4993841;28;20489;-75
2021/11/29 01:07:39;;;;;;;13.27;11.23;;;2.50;95.50;;;;;;4993935;28;20535;-75
2021/11/29 01:10:08;;;;;;;15.70;10.53;;;2.50;95.60;;;;;;4994663;28;20927;-75
2021/11/29 01:12:35;;;;;;;12.20;10.60;;;2.50;95.70;;;;;;4993592;28;20456;-75
2021/11/29 01:15:03;;;;;;;13.83;9.73;;;2.50;95.60;;;;;;4993628;28;20541;-74
2021/11/29 01:17:32;;;;;;;13.57;10.70;;;2.50;95.70;;;;;;4993394;28;20957;-74
2021/11/29 01:19:59;;;;;;;13.07;10.87;;;2.50;95.70;;;;;;4993716;28;20471;-75
2021/11/29 01:22:26;;;;;;;13.07;10.47;;;2.50;95.70;;;;;;4993716;28;20461;-75
2021/11/29 01:24:52;;;;;;;15.13;10.60;;;2.50;95.70;;;;;;4993056;28;20482;-75
2021/11/29 01:27:19;;;;;;;11.97;9.63;;;2.50;95.70;;;;;;4993592;28;20451;-75
2021/11/29 01:29:46;;;;;;;11.17;9.70;;;2.50;95.80;;;;;;4995567;28;20477;-75
2021/11/29 01:32:13;;;;;;;12.67;9.50;;;2.50;95.70;;;;;;4997323;28;20451;-75
2021/11/29 01:34:41;;;;;;;12.10;10.90;;;2.50;95.60;;;;;;4997680;28;20454;-76
2021/11/29 01:37:08;;;;;;;11.40;9.70;;;2.50;95.50;;;;;;4997417;28;20452;-76
2021/11/29 01:39:35;;;;;;;12.40;10.97;;;2.50;95.40;;;;;;4997261;28;20501;-76
2021/11/29 01:42:02;;;;;;;12.63;9.37;;;2.40;95.20;;;;;;4997176;28;20454;-76
2021/11/29 01:44:29;;;;;;;12.53;9.83;;;2.40;95.40;;;;;;4997072;28;20446;-76
2021/11/29 01:46:55;;;;;;;15.80;9.47;;;2.50;95.50;;;;;;4996774;28;20793;-76
2021/11/29 01:49:23;;;;;;;13.70;10.67;;;2.40;95.30;;;;;;4997147;28;20478;-76
2021/11/29 01:51:51;;;;;;;12.80;10.33;;;2.40;95.30;;;;;;4996976;28;20831;-76
2021/11/29 01:54:18;;;;;;;11.50;9.73;;;2.40;95.40;;;;;;4996931;28;20464;-76
2021/11/29 01:56:46;;;;;;;10.37;9.27;;;2.40;95.30;;;;;;4996994;28;20507;-76
2021/11/29 01:59:13;;;;;;;10.30;9.30;;;2.50;95.30;;;;;;4997028;28;20461;-76
2021/11/29 02:01:40;;;;;;;14.13;9.70;;;2.50;95.10;;;;;;4997398;28;20461;-76
2021/11/29 02:04:08;;;;;;;10.67;9.53;;;2.50;95.00;;;;;;4996723;28;20450;-76
2021/11/29 02:06:36;;;;;;;13.63;9.20;;;2.50;95.00;;;;;;4997027;28;20869;-76
2021/11/29 02:09:06;;;;;;;12.77;9.47;;;2.50;95.00;;;;;;4996648;28;20455;-76
2021/11/29 02:11:33;;;;;;;16.33;8.73;;;2.50;94.90;;;;;;4996830;28;20458;-76
2021/11/29 02:14:01;;;;;;;8.67;7.80;;;2.40;94.80;;;;;;4996559;28;20454;-75
2021/11/29 02:16:30;;;;;;;11.57;8.70;;;2.40;94.90;;;;;;4996544;28;20481;-76
2021/11/29 02:18:58;;;;;;;9.53;8.60;;;2.40;95.00;;;;;;4996474;28;20457;-76
2021/11/29 02:21:29;;;;;;;9.93;8.73;;;2.30;95.10;;;;;;4996382;28;20471;-75
2021/11/29 02:23:58;;;;;;;11.23;8.90;;;2.30;95.20;;;;;;4996453;28;20605;-76
2021/11/29 02:26:28;;;;;;;12.20;9.00;;;2.30;95.40;;;;;;4996278;28;20485;-76
2021/11/29 02:28:57;;;;;;;11.00;9.00;;;2.20;95.50;;;;;;4996338;28;20453;-75
2021/11/29 02:31:28;;;;;;;10.10;9.10;;;2.10;95.70;;;;;;4996096;28;20484;-76
2021/11/29 02:33:54;;;;;;;10.60;8.33;;;2.10;95.90;;;;;;4996286;28;20446;-76
2021/11/29 02:36:22;;;;;;;9.43;8.17;;;2.10;95.90;;;;;;4996327;28;20449;-76
2021/11/29 02:38:50;;;;;;;12.97;6.97;;;2.10;95.90;;;;;;4996204;28;20449;-76
2021/11/29 02:41:17;;;;;;;10.83;8.10;;;2.10;96.10;;;;;;4995739;28;21077;-76
2021/11/29 02:43:44;;;;;;;11.53;8.07;;;2.00;96.30;;;;;;4996140;28;20448;-76
2021/11/29 02:46:10;;;;;;;10.13;8.87;;;2.10;96.40;;;;;;4996092;28;20489;-76
2021/11/29 02:48:42;;;;;;;8.27;7.47;;;2.10;96.50;;;;;;4996009;28;20450;-76
2021/11/29 02:51:19;;;;;;;10.13;8.83;;;2.10;96.60;;;;;;4995987;28;20571;-76
2021/11/29 02:53:45;;;;;;;9.67;8.50;;;2.10;96.70;;;;;;4996058;28;20912;-76
2021/11/29 02:56:13;;;;;;;9.87;8.43;;;2.20;96.80;;;;;;4996161;28;20445;-76
2021/11/29 02:58:41;;;;;;;10.87;7.93;;;2.20;96.80;;;;;;4995819;28;20827;-76
2021/11/29 03:01:08;;;;;;;7.90;7.20;;;2.30;96.80;;;;;;4995383;28;21032;-76
2021/11/29 03:03:44;;;;;;;10.13;7.63;;;2.30;96.70;;;;;;4995796;28;20537;-76
2021/11/29 03:06:10;;;;;;;7.97;7.20;;;2.40;96.90;;;;;;4995780;28;20475;-76
2021/11/29 03:08:37;;;;;;;8.43;7.57;;;2.40;96.90;;;;;;4995658;28;20819;-76
2021/11/29 03:11:04;;;;;;;8.53;7.30;;;2.40;97.00;;;;;;4994781;28;20489;-76
2021/11/29 03:13:32;;;;;;;7.07;6.47;;;2.40;97.00;;;;;;4995106;28;20468;-75
2021/11/29 03:15:59;;;;;;;10.60;6.73;;;2.40;97.00;;;;;;4994538;28;20449;-76
2021/11/29 03:18:29;;;;;;;7.53;6.13;;;2.50;97.10;;;;;;4994412;28;20563;-75
2021/11/29 03:20:56;;;;;;;8.20;6.40;;;2.50;97.10;;;;;;4994353;28;20823;-75
2021/11/29 03:23:23;;;;;;;10.53;6.50;;;2.50;97.00;;;;;;4994419;28;20453;-76
2021/11/29 03:25:50;;;;;;;6.73;5.30;;;2.50;96.90;;;;;;4994472;28;20480;-76
2021/11/29 03:28:16;;;;;;;7.37;6.43;;;2.50;96.90;;;;;;4994391;28;20458;-76
2021/11/29 03:30:45;;;;;;;9.73;6.20;;;2.50;96.90;;;;;;4993970;28;20984;-76
2021/11/29 03:33:12;;;;;;;6.30;5.30;;;2.40;96.80;;;;;;4994381;28;20441;-76
2021/11/29 03:35:38;;;;;;;5.80;5.30;;;2.40;96.90;;;;;;4994038;28;20448;-76
2021/11/29 03:38:05;;;;;;;6.63;5.23;;;2.40;97.00;;;;;;4994384;28;20449;-76
2021/11/29 03:40:33;;;;;;;6.53;5.40;;;2.50;96.90;;;;;;4993900;28;20479;-76
2021/11/29 03:43:00;;;;;;;5.17;4.43;;;2.40;97.00;;;;;;4994216;28;20513;-76
2021/11/29 03:45:27;;;;;;;5.77;5.20;;;2.40;97.00;;;;;;4994072;28;20498;-76
2021/11/29 03:47:55;;;;;;;9.23;4.70;;;2.50;96.90;;;;;;4994073;28;20439;-76
2021/11/29 03:50:22;;;;;;;5.97;4.90;;;2.40;96.80;;;;;;4993633;28;20984;-76
2021/11/29 03:52:48;;;;;;;4.20;3.83;;;2.40;96.90;;;;;;4993323;28;20462;-76
2021/11/29 03:55:16;;;;;;;5.20;4.77;;;2.40;96.90;;;;;;4993992;28;20444;-75
2021/11/29 03:57:43;;;;;;;5.77;5.20;;;2.40;97.00;;;;;;4994011;28;20458;-75
2021/11/29 04:00:11;;;;;;;6.30;4.97;;;2.30;97.00;;;;;;4993508;28;20482;-75
2021/11/29 04:02:38;;;;;;;4.80;4.40;;;2.30;97.10;;;;;;4993621;28;20965;-75
2021/11/29 04:05:07;;;;;;;6.40;5.17;;;2.30;97.20;;;;;;4993590;28;20965;-75
2021/11/29 04:07:34;;;;;;;6.87;4.90;;;2.30;97.20;;;;;;4994199;28;20452;-75
2021/11/29 04:10:00;;;;;;;5.10;4.70;;;2.30;97.20;;;;;;4956050;28;1092618;-75
2021/11/29 04:12:27;;;;;;;5.80;5.30;;;2.30;97.30;;;;;;4994410;28;20690;-74
2021/11/29 04:14:54;;;;;;;5.20;4.53;;;2.30;97.30;;;;;;4994626;28;20454;-75
2021/11/29 04:17:21;;;;;;;9.10;5.70;;;2.30;97.40;;;;;;4994605;28;20425;-75
2021/11/29 04:19:48;;;;;;;5.37;4.87;;;2.30;97.40;;;;;;4994386;28;20481;-76
2021/11/29 04:22:16;;;;;;;5.27;4.87;;;2.30;97.30;;;;;;4994424;28;20446;-76
2021/11/29 04:24:45;;;;;;;4.23;3.83;;;2.30;97.30;;;;;;4994399;28;20455;-75
2021/11/29 04:27:12;;;;;;;9.77;4.63;;;2.30;97.20;;;;;;4994199;28;20617;-75
2021/11/29 04:29:41;;;;;;;5.57;4.17;;;2.40;97.10;;;;;;4994191;28;20471;-75
2021/11/29 04:32:09;;;;;;;5.40;3.90;;;2.30;96.90;;;;;;4994163;28;20552;-75
2021/11/29 04:34:37;;;;;;;6.27;4.57;;;2.40;96.90;;;;;;4994321;28;20440;-75
2021/11/29 04:37:05;;;;;;;8.17;4.80;;;2.30;96.80;;;;;;4994112;28;20448;-75
2021/11/29 04:39:34;;;;;;;5.83;4.30;;;2.40;97.00;;;;;;4994038;28;20502;-75
2021/11/29 04:42:02;;;;;;;8.13;4.23;;;2.40;97.00;;;;;;4994669;28;20451;-76
2021/11/29 04:44:29;;;;;;;5.33;4.37;;;2.30;96.90;;;;;;4994468;28;20474;-75
2021/11/29 04:46:56;;;;;;;6.73;4.40;;;2.40;97.00;;;;;;4994008;28;20486;-75
2021/11/29 04:49:23;;;;;;;6.07;4.57;;;2.40;97.10;;;;;;4993537;28;21032;-75
2021/11/29 04:51:50;;;;;;;5.43;4.93;;;2.30;97.00;;;;;;4993940;28;20459;-75
2021/11/29 04:54:17;;;;;;;5.40;4.90;;;2.30;97.10;;;;;;4993869;28;20454;-75
2021/11/29 04:56:46;;;;;;;6.40;5.80;;;2.30;97.30;;;;;;4994158;28;20537;-75
2021/11/29 04:59:13;;;;;;;6.03;5.43;;;2.30;97.50;;;;;;4993522;28;20474;-76
2021/11/29 05:01:40;;;;;;;10.23;6.37;;;2.30;97.70;;;;;;4993863;28;20791;-74
2021/11/29 05:04:06;;;;;;;6.77;5.80;;;2.30;97.90;;;;;;4995667;28;20864;-74
2021/11/29 05:06:36;;;;;;;6.00;5.50;;;2.30;98.00;;;;;;4998261;28;20974;-75
2021/11/29 05:09:04;;;;;;;7.53;6.73;;;2.20;98.10;;;;;;4997792;28;20440;-74
2021/11/29 05:11:31;;;;;;;8.37;6.40;;;2.30;98.20;;;;;;4997857;28;20506;-73
2021/11/29 05:13:59;;;;;;;6.70;6.00;;;2.30;98.30;;;;;;4997836;28;20454;-74
2021/11/29 05:16:26;;;;;;;8.03;5.63;;;2.30;98.20;;;;;;4997538;28;20935;-74
2021/11/29 05:18:53;;;;;;;8.90;8.00;;;2.30;98.20;;;;;;4997915;28;20921;-74
2021/11/29 05:21:20;;;;;;;8.07;6.83;;;2.20;98.20;;;;;;4997602;28;20808;-74
2021/11/29 05:23:47;;;;;;;8.67;7.33;;;2.20;98.50;;;;;;4997186;28;21019;-74
2021/11/29 05:26:15;;;;;;;12.27;8.63;;;2.20;98.50;;;;;;4997173;28;20971;-74
2021/11/29 05:28:41;;;;;;;10.33;9.03;;;2.20;98.50;;;;;;4998222;28;20465;-73
2021/11/29 05:31:10;;;;;;;11.77;10.30;;;2.30;98.50;;;;;;4997358;28;20994;-74
2021/11/29 05:33:37;;;;;;;12.43;11.10;;;2.30;98.50;;;;;;4997083;28;20442;-74
2021/11/29 05:36:04;;;;;;;14.13;11.07;;;2.20;98.60;;;;;;4997284;28;20451;-74
2021/11/29 05:38:31;;;;;;;13.03;11.33;;;2.30;98.70;;;;;;4997218;28;20453;-74
2021/11/29 05:41:00;;;;;;;11.27;9.73;;;2.30;98.60;;;;;;4998445;28;20466;-76
2021/11/29 05:43:27;;;;;;;11.87;10.60;;;2.30;98.60;;;;;;4997276;28;20461;-76
2021/11/29 05:45:53;;;;;;;12.07;10.70;;;2.40;98.60;;;;;;4996977;28;20553;-76
2021/11/29 05:48:22;;;;;;;13.00;11.27;;;2.40;98.50;;;;;;4997140;28;20432;-76
2021/11/29 05:50:49;;;;;;;21.50;12.20;;;2.50;98.50;;;;;;4996821;28;20476;-76
2021/11/29 05:53:16;;;;;;;11.20;10.10;;;2.50;98.40;;;;;;4997129;28;20828;-76
2021/11/29 05:55:42;;;;;;;11.37;9.93;;;2.50;98.50;;;;;;4997449;28;20455;-73
2021/11/29 05:58:09;;;;;;;11.80;10.60;;;2.40;98.50;;;;;;4997003;28;20821;-74
2021/11/29 06:00:36;;;;;;;12.07;9.87;;;2.40;98.60;;;;;;4996808;28;20470;-73
2021/11/29 06:03:03;;;;;;;10.17;9.07;;;2.50;98.50;;;;;;4996694;28;20453;-74
2021/11/29 06:05:32;;;;;;;11.83;8.50;;;2.40;98.50;;;;;;4996792;28;20432;-74
2021/11/29 06:07:59;;;;;;;11.60;8.60;;;2.40;98.60;;;;;;4996734;28;20536;-73
2021/11/29 06:10:25;;;;;;;10.93;8.70;;;2.50;98.70;;;;;;4996276;28;20495;-74
2021/11/29 06:12:52;;;;;;;9.37;7.80;;;2.40;98.60;;;;;;4996729;28;20451;-73
2021/11/29 06:15:20;;;;;;;9.07;8.17;;;2.50;98.70;;;;;;4996300;28;20451;-73
2021/11/29 06:17:47;;;;;;;12.13;8.63;;;2.50;98.70;;;;;;4996593;28;20504;-72
2021/11/29 06:20:19;;;;;;;8.67;7.83;;;2.40;98.70;;;;;;4996358;28;21010;-73
2021/11/29 06:22:48;;;;;;;10.27;7.97;;;2.40;98.80;;;;;;4996463;28;20442;-73
2021/11/29 06:25:15;;;;;;;7.63;6.87;;;2.40;98.80;;;;;;4996674;28;20472;-73
2021/11/29 06:27:42;;;;;;;11.00;6.90;;;2.50;98.80;;;;;;4997001;28;20496;-73
2021/11/29 06:30:09;;;;;;;9.30;7.17;;;2.50;98.70;;;;;;4996272;28;20467;-72
2021/11/29 06:32:36;;;;;;;13.47;7.47;;;2.40;98.60;;;;;;4996311;28;20445;-72
2021/11/29 06:35:03;;;;;;;12.30;7.40;;;2.40;98.60;;;;;;4995909;28;20954;-72
2021/11/29 06:37:30;;;;;;;9.07;7.10;;;2.40;98.50;;;;;;4995889;28;20450;-72
2021/11/29 06:39:59;;;;;;;8.90;7.67;;;2.40;98.60;;;;;;4996005;28;20991;-72
2021/11/29 06:42:26;;;;;;;9.43;8.43;;;2.40;98.50;;;;;;4996171;28;20863;-73
2021/11/29 06:44:53;;;;;;;8.10;6.97;;;2.40;98.50;;;;;;4996051;28;20455;-72
2021/11/29 06:47:20;;;;;;;10.10;7.80;;;2.40;98.40;;;;;;4995970;28;20483;-73
2021/11/29 06:49:47;;;;;;;8.73;7.57;;;2.40;98.40;;;;;;4995583;28;21011;-73
2021/11/29 06:52:14;;;;;;;11.27;7.80;;;2.40;98.20;;;;;;4995877;28;20459;-73
2021/11/29 06:54:41;;;;;;;8.87;7.97;;;2.40;98.30;;;;;;4995816;28;20460;-73
2021/11/29 06:57:09;;;;;;;10.33;8.80;;;2.40;98.40;;;;;;4995864;28;20453;-73
2021/11/29 06:59:37;;;;;;;11.17;9.43;;;2.40;98.30;;;;;;4995717;28;20475;-73
2021/11/29 07:02:06;;;;;;;12.67;10.00;;;2.40;98.20;;;;;;4995729;28;20469;-74
2021/11/29 07:04:33;;;;;;;10.57;9.00;;;2.30;98.40;;;;;;4995720;28;20466;-73
2021/11/29 07:06:59;;;;;;;13.57;9.80;;;2.30;98.40;;;;;;4995628;28;20490;-72
2021/11/29 07:09:26;;;;;;;12.70;9.60;;;2.30;98.50;;;;;;4995196;28;20981;-72
2021/11/29 07:11:53;;;;;;;16.03;10.93;;;2.20;98.60;;;;;;4995599;28;20467;-73
2021/11/29 07:14:22;;;;;;;13.60;10.23;;;2.20;98.70;;;;;;4995694;28;20814;-73
2021/11/29 07:16:49;;;;;;;12.97;9.87;;;2.30;98.80;;;;;;4995607;28;20446;-73
2021/11/29 07:19:16;;;;;;;14.80;9.40;;;2.30;98.80;;;;;;4995554;28;20456;-73
2021/11/29 07:21:43;;;;;;;13.60;10.87;;;2.30;98.70;;;;;;4995627;28;20447;-73
2021/11/29 07:24:10;;;;;;;11.40;9.57;;;2.30;98.70;;;;;;4995532;28;20527;-73
2021/11/29 07:26:37;;;;;;;15.17;11.27;;;2.30;98.70;;;;;;4994452;28;20482;-75
2021/11/29 07:29:05;;;;;;;14.87;10.37;;;2.20;98.80;;;;;;4995625;28;20535;-75
2021/11/29 07:31:34;;;;;;;11.20;9.73;;;2.30;98.90;;;;;;4995369;28;20444;-75
2021/11/29 07:34:00;;;;;;;14.53;10.90;;;2.30;98.90;;;;;;4995243;28;20455;-74
2021/11/29 07:36:27;;;;;;;17.63;9.67;;;2.30;99.00;;;;;;4995165;28;20476;-74
2021/11/29 07:38:54;;;;;;;14.80;9.60;;;2.30;98.90;;;;;;4994799;28;20456;-75
2021/11/29 07:41:21;;;;;;;14.03;10.50;;;2.20;98.80;;;;;;4994776;28;20469;-75
2021/11/29 07:43:48;;;;;;;20.43;11.00;;;2.30;98.90;;;;;;4995176;28;20479;-74
2021/11/29 07:46:14;;;;;;;11.97;9.43;;;2.30;99.10;;;;;;4994721;28;20968;-74
2021/11/29 07:48:43;;;;;;;12.00;9.43;;;2.30;99.00;;;;;;4995021;28;20486;-75
2021/11/29 07:51:09;;;;;;;12.33;10.30;;;2.30;99.00;;;;;;4994826;28;20480;-75
2021/11/29 07:53:36;;;;;;;11.37;9.53;;;2.30;98.90;;;;;;4994872;28;20468;-74
2021/11/29 07:56:04;;;;;;;12.40;9.10;;;2.30;99.00;;;;;;4994866;28;20795;-74
2021/11/29 07:58:31;;;;;;;13.03;9.43;;;2.30;99.00;;;;;;4994555;28;20437;-73
2021/11/29 08:00:58;;;;;;;11.37;9.00;;;2.40;99.10;;;;;;4994451;28;20996;-73
2021/11/29 08:03:24;;;;;;;14.40;9.67;;;2.40;99.10;;;;;;4994476;28;21018;-75
2021/11/29 08:05:52;;;;;;;11.30;8.60;;;2.40;99.10;;;;;;4994614;28;20456;-74
2021/11/29 08:08:19;;;;;;;11.40;8.30;;;2.40;99.10;;;;;;4994644;28;20483;-74
2021/11/29 08:10:46;;;;;;;10.73;8.80;;;2.50;99.20;;;;;;4994211;28;20995;-74
2021/11/29 08:13:13;;;;;;;12.47;8.53;;;2.50;99.00;;;;;;4994568;28;20822;-75
2021/11/29 08:15:41;;;;;;;14.67;8.93;;;2.50;99.10;;;;;;4994513;28;20508;-76
2021/11/29 08:18:10;;;;;;;11.80;8.30;;;2.50;99.00;;;;;;4994645;28;20447;-74
2021/11/29 08:20:37;;;;;;;10.77;8.90;;;2.50;99.00;;;;;;4994314;28;20506;-73
2021/11/29 08:23:08;;;;;;;10.83;8.23;;;2.60;99.00;;;;;;4994139;28;20925;-75
2021/11/29 08:25:36;;;;;;;16.30;8.60;;;2.60;98.90;;;;;;4994316;28;20462;-73
2021/11/29 08:28:02;;;;;;;12.47;9.23;;;2.60;98.80;;;;;;4994295;28;20495;-74
2021/11/29 08:30:29;;;;;;;14.27;10.03;;;2.60;98.70;;;;;;4994251;28;20821;-74
2021/11/29 08:32:56;;;;;;;11.77;9.67;;;2.70;98.60;;;;;;4993988;28;20460;-74
2021/11/29 08:35:24;;;;;;;13.73;10.70;;;2.60;98.70;;;;;;4994111;28;20805;-75
2021/11/29 08:37:54;;;;;;;11.47;9.80;;;2.70;98.70;;;;;;4994030;28;20498;-74
2021/11/29 08:40:26;;;;;;;16.40;11.10;;;2.70;98.80;;;;;;4994058;28;20884;-74
2021/11/29 08:42:53;;;;;;;11.93;10.10;;;2.80;98.80;;;;;;4993981;28;20945;-74
2021/11/29 08:45:21;;;;;;;14.23;11.83;;;2.80;98.60;;;;;;4994115;28;20451;-74
2021/11/29 08:47:48;;;;;;;13.20;10.13;;;2.80;98.50;;;;;;4994105;28;20468;-75
2021/11/29 08:50:14;;;;;;;13.80;10.77;;;2.80;98.50;;;;;;4994446;28;20482;-74
2021/11/29 08:52:44;;;;;;;13.73;10.67;;;2.90;98.40;;;;;;4993893;28;21027;-74
2021/11/29 08:55:11;;;;;;;14.80;10.77;;;2.90;98.50;;;;;;4993864;28;20460;-73
2021/11/29 08:57:40;;;;;;;13.23;10.57;;;3.00;98.50;;;;;;4993941;28;20444;-73
2021/11/29 09:00:09;;;;;;;16.90;10.93;;;3.10;98.40;;;;;;4993913;28;20477;-75
2021/11/29 09:02:36;;;;;;;12.30;10.47;;;3.20;98.40;;;;;;4994815;28;20451;-73
2021/11/29 09:05:03;;;;;;;17.43;11.00;;;3.20;98.00;;;;;;4993908;28;20478;-74
2021/11/29 09:07:30;;;;;;;14.13;10.70;;;3.30;97.90;;;;;;4993798;28;20484;-75
2021/11/29 09:09:58;;;;;;;15.43;10.23;;;3.30;97.60;;;;;;4993439;28;20502;-74
2021/11/29 09:12:24;;;;;;;14.13;10.30;;;3.40;97.50;;;;;;4994094;28;20444;-75
2021/11/29 09:14:53;;;;;;;18.20;10.63;;;3.40;97.50;;;;;;4994076;28;20451;-74
2021/11/29 09:17:19;;;;;;;14.00;9.33;;;3.40;97.40;;;;;;4993898;28;20454;-74
2021/11/29 09:19:46;;;;;;;9.70;8.37;;;3.40;97.50;;;;;;4993933;28;20468;-74
2021/11/29 09:22:13;;;;;;;11.23;9.07;;;3.40;97.50;;;;;;4993558;28;20464;-74
2021/11/29 09:24:40;;;;;;;11.50;8.90;;;3.40;97.40;;;;;;4993866;28;20494;-74
2021/11/29 09:27:07;;;;;;;11.53;9.37;;;3.50;97.50;;;;;;4993650;28;20448;-73
2021/11/29 09:29:34;;;;;;;12.17;9.10;;;3.60;97.50;;;;;;4993365;28;20479;-73
2021/11/29 09:32:04;;;;;;;9.03;8.13;;;3.60;97.30;;;;;;4993355;28;20960;-73
2021/11/29 09:34:31;;;;;;;12.97;8.47;;;3.60;97.20;;;;;;4993897;28;20799;-72
2021/11/29 09:36:58;;;;;;;12.70;9.27;;;3.60;97.10;;;;;;4993615;28;20461;-72
2021/11/29 09:39:25;;;;;;;9.20;8.20;;;3.60;97.30;;;;;;4993589;28;20467;-72
2021/11/29 09:41:52;;;;;;;13.40;7.97;;;3.60;97.30;;;;;;4993649;28;20459;-74
2021/11/29 09:44:18;;;;;;;11.07;7.63;;;3.60;97.50;;;;;;4993767;28;20461;-73
2021/11/29 09:46:45;;;;;;;15.80;8.37;;;3.70;97.70;;;;;;4993266;28;20462;-73
2021/11/29 09:49:14;;;;;;;9.33;7.30;;;3.70;97.60;;;;;;4993394;28;20490;-74
2021/11/29 09:51:40;;;;;;;9.40;7.57;;;3.60;97.50;;;;;;4996940;28;20456;-75
2021/11/29 09:54:09;;;;;;;11.47;8.00;;;3.60;97.70;;;;;;4997140;28;20459;-75
2021/11/29 09:56:37;;;;;;;10.87;8.77;;;3.60;97.80;;;;;;4997309;28;20437;-74
2021/11/29 09:59:07;;;;;;;12.00;9.17;;;3.60;97.90;;;;;;4996953;28;20534;-75
2021/11/29 10:01:34;;;;;;;10.93;8.47;;;3.60;97.90;;;;;;4996926;28;20447;-73
2021/11/29 10:04:01;;;;;;;10.13;7.97;;;3.60;97.80;;;;;;4996896;28;20450;-73
2021/11/29 10:06:29;;;;;;;12.07;8.10;;;3.70;98.10;;;;;;4996504;28;20961;-74
2021/11/29 10:08:56;;;;;;;12.23;9.50;;;3.70;97.90;;;;;;4996878;28;20487;-74
2021/11/29 10:11:31;;;;;;;10.67;7.47;;;3.80;97.80;;;;;;4996646;28;20486;-74
2021/11/29 10:14:01;;;;;;;9.23;7.80;;;3.80;97.80;;;;;;4996888;28;20451;-74
2021/11/29 10:16:30;;;;;;;10.83;7.60;;;3.90;97.70;;;;;;4996690;28;20440;-76
2021/11/29 10:18:57;;;;;;;11.17;7.13;;;3.90;97.80;;;;;;4996579;28;20448;-76
2021/11/29 10:21:24;;;;;;;10.80;7.23;;;4.00;97.60;;;;;;4996872;28;20559;-77
2021/11/29 10:23:54;;;;;;;11.43;7.20;;;4.00;97.30;;;;;;4996936;28;20452;-76
2021/11/29 10:26:25;;;;;;;10.30;7.00;;;4.10;97.30;;;;;;4996267;28;20439;-76
2021/11/29 10:28:56;;;;;;;8.80;6.83;;;4.20;97.30;;;;;;4996836;28;20476;-77
2021/11/29 10:31:26;;;;;;;11.00;7.20;;;4.20;97.20;;;;;;4996437;28;20906;-77
2021/11/29 10:34:03;;;;;;;8.27;7.17;;;4.20;97.40;;;;;;4996552;28;20800;-76
2021/11/29 10:36:36;;;;;;;14.23;8.40;;;4.20;97.50;;;;;;4996067;28;20438;-75
2021/11/29 10:39:09;;;;;;;8.03;6.83;;;4.20;97.50;;;;;;4996256;28;20432;-75
2021/11/29 10:41:39;;;;;;;12.63;7.47;;;4.20;97.80;;;;;;4995927;28;20923;-76
2021/11/29 10:44:09;;;;;;;7.57;6.00;;;4.20;97.90;;;;;;4996237;28;20491;-77
2021/11/29 10:46:38;;;;;;;7.00;6.33;;;4.20;97.90;;;;;;4996165;28;20436;-77
2021/11/29 10:49:08;;;;;;;10.50;6.90;;;4.30;98.30;;;;;;4995742;28;20484;-77
2021/11/29 10:51:36;;;;;;;12.20;7.30;;;4.30;97.80;;;;;;4995987;28;20445;-76
2021/11/29 10:54:06;;;;;;;8.90;6.30;;;4.30;98.20;;;;;;4996010;28;20452;-76
2021/11/29 10:56:37;;;;;;;10.40;6.70;;;4.40;98.10;;;;;;4995781;28;20454;-77
2021/11/29 10:59:06;;;;;;;8.10;7.00;;;4.50;98.20;;;;;;4995852;28;20432;-76
2021/11/29 11:01:40;;;;;;;11.00;6.67;;;4.60;98.10;;;;;;4994712;28;20456;-76
2021/11/29 11:04:09;;;;;;;8.30;6.27;;;4.70;98.10;;;;;;4995875;28;20899;-76
2021/11/29 11:06:38;;;;;;;7.10;6.40;;;4.70;98.10;;;;;;4995777;28;20448;-74
2021/11/29 11:09:19;;;;;;;7.73;6.30;;;4.70;98.10;;;;;;4995425;28;20506;-74
2021/11/29 11:11:48;;;;;;;11.40;7.03;;;4.80;98.40;;;;;;4995623;28;20471;-74
2021/11/29 11:14:18;;;;;;;8.90;6.27;;;4.80;98.50;;;;;;4995582;28;20448;-75
2021/11/29 11:16:52;;;;;;;9.10;5.97;;;4.90;98.60;;;;;;4995670;28;20801;-75
2021/11/29 11:19:31;;;;;;;11.40;5.40;;;4.90;98.60;;;;;;4995456;28;20446;-75
2021/11/29 11:22:01;;;;;;;5.80;5.23;;;4.90;98.60;;;;;;4995215;28;20432;-75
2021/11/29 11:24:33;;;;;;;9.70;5.40;;;4.90;98.60;;;;;;4995661;28;20442;-77
2021/11/29 11:27:02;;;;;;;6.00;5.13;;;4.90;98.50;;;;;;4995320;28;20451;-77
2021/11/29 11:29:36;;;;;;;8.03;5.77;;;4.90;98.50;;;;;;4995155;28;20492;-77
2021/11/29 11:32:28;;;;;;;9.93;5.23;;;5.00;98.50;;;;;;4994998;28;20893;-77
2021/11/29 11:34:56;;;;;;;7.57;5.10;;;5.00;98.40;;;;;;4995230;28;20437;-77
2021/11/29 11:37:26;;;;;;;5.43;4.87;;;5.10;98.50;;;;;;4995112;28;20472;-77
2021/11/29 11:39:55;;;;;;;10.53;4.40;;;5.10;98.50;;;;;;4995303;28;20464;-77
2021/11/29 11:42:22;;;;;;;9.00;5.37;;;5.20;98.40;;;;;;4995224;28;20452;-77
2021/11/29 11:44:50;;;;;;;15.27;4.53;;;5.30;98.40;;;;;;4994846;28;20961;-77
2021/11/29 11:47:18;;;;;;;4.37;3.97;;;5.30;98.30;;;;;;4995160;28;20468;-77
2021/11/29 11:49:47;;;;;;;6.90;4.60;;;5.40;98.20;;;;;;4994905;28;20487;-76
2021/11/29 11:52:16;;;;;;;6.77;4.73;;;5.40;97.90;;;;;;4995054;28;20895;-79
2021/11/29 11:54:43;;;;;;;4.83;4.33;;;5.30;97.80;;;;;;4994608;28;20449;-75
2021/11/29 11:57:15;;;;;;;9.80;4.60;;;5.30;97.90;;;;;;4994440;28;20934;-74
2021/11/29 11:59:55;;;;;;;6.73;4.87;;;5.30;97.80;;;;;;4994719;28;20550;-74
2021/11/29 12:02:43;;;;;;;7.37;3.70;;;5.40;97.90;;;;;;4994656;28;20440;-75
2021/11/29 12:05:15;;;;;;;4.93;3.70;;;5.40;98.00;;;;;;4994482;28;20948;-74
2021/11/29 12:07:42;;;;;;;7.70;3.80;;;5.40;97.90;;;;;;4994631;28;20479;-74
2021/11/29 12:10:38;;;;;;;4.93;3.80;;;5.50;97.90;;;;;;4994092;28;21012;-76
2021/11/29 12:13:10;;;;;;;4.63;4.00;;;5.50;97.70;;;;;;4994229;28;20443;-77
2021/11/29 12:15:39;;;;;;;5.77;3.40;;;5.50;97.60;;;;;;4994507;28;20437;-75
2021/11/29 12:18:07;;;;;;;8.90;4.30;;;5.50;97.70;;;;;;4994355;28;20445;-74
2021/11/29 12:20:34;;;;;;;6.63;3.60;;;5.50;97.60;;;;;;4994637;28;20477;-74
2021/11/29 12:23:01;;;;;;;9.10;4.53;;;5.50;97.60;;;;;;4994476;28;20478;-74
2021/11/29 12:25:32;;;;;;;8.50;3.90;;;5.50;97.60;;;;;;4995921;28;20458;-77
2021/11/29 12:28:02;;;;;;;6.93;4.00;;;5.50;97.80;;;;;;4995568;28;20857;-74
2021/11/29 12:30:37;;;;;;;7.40;3.83;;;5.60;97.90;;;;;;4994186;28;20476;-74
2021/11/29 12:33:05;;;;;;;5.90;4.40;;;5.60;97.80;;;;;;4994281;28;20432;-75
2021/11/29 12:35:35;;;;;;;3.83;3.40;;;5.60;97.80;;;;;;4993884;28;20456;-74
2021/11/29 12:38:05;;;;;;;7.10;4.33;;;5.70;97.80;;;;;;4994262;28;20447;-74
2021/11/29 12:40:44;;;;;;;5.27;3.70;;;5.70;97.70;;;;;;4994139;28;20845;-74
2021/11/29 12:43:12;;;;;;;7.57;3.67;;;5.80;97.60;;;;;;4993894;28;20460;-74
2021/11/29 12:45:40;;;;;;;4.57;3.73;;;5.90;97.20;;;;;;4993779;28;20443;-74
2021/11/29 12:48:16;;;;;;;8.43;3.63;;;6.00;97.10;;;;;;4993749;28;20490;-74
2021/11/29 12:50:52;;;;;;;5.27;3.23;;;6.20;97.00;;;;;;4993839;28;20558;-74
2021/11/29 12:53:28;;;;;;;9.20;4.77;;;6.30;96.60;;;;;;4993823;28;20455;-74